sensor_id;sensor_type;location;lat;lon;timestamp;pressure;altitude;pressure_sealevel;temperature;humidity
2294;BME280;1155;42.644;23.264;2023-05-12T00:01:21;60249.09;;;-140.67;100.00
2294;BME280;1155;42.644;23.264;2023-05-12T00:03:48;60249.09;;;-140.67;100.00
2294;BME280;1155;42.644;23.264;2023-05-12T00:06:17;60232.72;;;-140.67;100.00
2294;BME280;1155;42.644;23.264;2023-05-12T00:08:44;60261.38;;;-140.67;100.00
2294;BME280;1155;42.644;23.264;2023-05-12T00:11:11;60277.75;;;-140.67;100.00
2294;BME280;1155;42.644;23.264;2023-05-12T00:13:38;60267.53;;;-140.67;100.00
2294;BME280;1155;42.644;23.264;2023-05-12T00:16:06;60269.56;;;-140.67;100.00
2294;BME280;1155;42.644;23.264;2023-05-12T00:18:33;60253.19;;;-140.67;100.00
2294;BME280;1155;42.644;23.264;2023-05-12T00:21:00;60247.03;;;-140.67;100.00
2294;BME280;1155;42.644;23.264;2023-05-12T00:23:27;60265.47;;;-140.67;100.00
2294;BME280;1155;42.644;23.264;2023-05-12T00:25:54;60259.34;;;-140.67;100.00
2294;BME280;1155;42.644;23.264;2023-05-12T00:28:21;60255.22;;;-140.67;100.00
2294;BME280;1155;42.644;23.264;2023-05-12T00:30:47;60255.22;;;-140.67;100.00
2294;BME280;1155;42.644;23.264;2023-05-12T00:33:16;60247.03;;;-140.67;100.00
2294;BME280;1155;42.644;23.264;2023-05-12T00:35:42;60259.34;;;-140.67;100.00
2294;BME280;1155;42.644;23.264;2023-05-12T00:38:10;60224.53;;;-140.67;100.00
2294;BME280;1155;42.644;23.264;2023-05-12T00:40:37;60259.34;;;-140.67;100.00
2294;BME280;1155;42.644;23.264;2023-05-12T00:43:04;60277.75;;;-140.67;100.00
2294;BME280;1155;42.644;23.264;2023-05-12T00:45:31;60251.13;;;-140.67;100.00
2294;BME280;1155;42.644;23.264;2023-05-12T00:47:58;60232.72;;;-140.67;100.00
2294;BME280;1155;42.644;23.264;2023-05-12T00:50:26;60267.53;;;-140.67;100.00
2294;BME280;1155;42.644;23.264;2023-05-12T00:52:53;60277.75;;;-140.67;100.00
2294;BME280;1155;42.644;23.264;2023-05-12T00:55:20;60261.38;;;-140.67;100.00
2294;BME280;1155;42.644;23.264;2023-05-12T00:57:47;60253.19;;;-140.67;100.00
2294;BME280;1155;42.644;23.264;2023-05-12T01:00:14;60251.13;;;-140.67;100.00
2294;BME280;1155;42.644;23.264;2023-05-12T01:02:44;60251.13;;;-140.67;100.00
2294;BME280;1155;42.644;23.264;2023-05-12T01:05:12;60253.19;;;-140.67;100.00
2294;BME280;1155;42.644;23.264;2023-05-12T01:07:41;60259.34;;;-140.67;100.00
2294;BME280;1155;42.644;23.264;2023-05-12T01:10:17;60234.75;;;-140.67;100.00
2294;BME280;1155;42.644;23.264;2023-05-12T01:12:44;60249.09;;;-140.67;100.00
2294;BME280;1155;42.644;23.264;2023-05-12T01:15:11;60257.28;;;-140.67;100.00
2294;BME280;1155;42.644;23.264;2023-05-12T01:17:44;60263.44;;;-140.67;100.00
2294;BME280;1155;42.644;23.264;2023-05-12T01:20:14;60242.94;;;-140.67;100.00
2294;BME280;1155;42.644;23.264;2023-05-12T01:22:44;60277.75;;;-140.67;100.00
2294;BME280;1155;42.644;23.264;2023-05-12T01:25:13;60273.66;;;-140.67;100.00
2294;BME280;1155;42.644;23.264;2023-05-12T01:27:42;60261.38;;;-140.67;100.00
2294;BME280;1155;42.644;23.264;2023-05-12T01:30:14;60271.63;;;-140.67;100.00
2294;BME280;1155;42.644;23.264;2023-05-12T01:32:41;60249.09;;;-140.67;100.00
2294;BME280;1155;42.644;23.264;2023-05-12T01:35:08;60257.28;;;-140.67;100.00
2294;BME280;1155;42.644;23.264;2023-05-12T01:37:35;60240.91;;;-140.67;100.00
2294;BME280;1155;42.644;23.264;2023-05-12T01:40:03;60253.19;;;-140.67;100.00
2294;BME280;1155;42.644;23.264;2023-05-12T01:42:29;60245.00;;;-140.67;100.00
2294;BME280;1155;42.644;23.264;2023-05-12T01:44:58;60285.94;;;-140.67;100.00
2294;BME280;1155;42.644;23.264;2023-05-12T01:47:25;60257.28;;;-140.67;100.00
2294;BME280;1155;42.644;23.264;2023-05-12T01:49:51;60285.94;;;-140.67;100.00
2294;BME280;1155;42.644;23.264;2023-05-12T01:52:18;60277.75;;;-140.67;100.00
2294;BME280;1155;42.644;23.264;2023-05-12T01:54:45;60265.47;;;-140.67;100.00
2294;BME280;1155;42.644;23.264;2023-05-12T01:57:12;60253.19;;;-140.67;100.00
2294;BME280;1155;42.644;23.264;2023-05-12T01:59:39;60261.38;;;-140.67;100.00
2294;BME280;1155;42.644;23.264;2023-05-12T02:02:07;60240.91;;;-140.67;100.00
2294;BME280;1155;42.644;23.264;2023-05-12T02:04:34;60267.53;;;-140.67;100.00
2294;BME280;1155;42.644;23.264;2023-05-12T02:07:02;60261.38;;;-140.67;100.00
2294;BME280;1155;42.644;23.264;2023-05-12T02:09:28;60253.19;;;-140.67;100.00
2294;BME280;1155;42.644;23.264;2023-05-12T02:11:55;60226.56;;;-140.67;100.00
2294;BME280;1155;42.644;23.264;2023-05-12T02:14:22;60263.44;;;-140.67;100.00
2294;BME280;1155;42.644;23.264;2023-05-12T02:16:49;60257.28;;;-140.67;100.00
2294;BME280;1155;42.644;23.264;2023-05-12T02:19:18;60236.81;;;-140.67;100.00
2294;BME280;1155;42.644;23.264;2023-05-12T02:21:45;60259.34;;;-140.67;100.00
2294;BME280;1155;42.644;23.264;2023-05-12T02:24:12;60261.38;;;-140.67;100.00
2294;BME280;1155;42.644;23.264;2023-05-12T02:26:41;60253.19;;;-140.67;100.00
2294;BME280;1155;42.644;23.264;2023-05-12T02:29:07;60240.91;;;-140.67;100.00
2294;BME280;1155;42.644;23.264;2023-05-12T02:31:35;60275.72;;;-140.67;100.00
2294;BME280;1155;42.644;23.264;2023-05-12T02:34:01;60253.19;;;-140.67;100.00
2294;BME280;1155;42.644;23.264;2023-05-12T02:36:30;60273.66;;;-140.67;100.00
2294;BME280;1155;42.644;23.264;2023-05-12T02:38:57;60255.22;;;-140.67;100.00
2294;BME280;1155;42.644;23.264;2023-05-12T02:41:24;60261.38;;;-140.67;100.00
2294;BME280;1155;42.644;23.264;2023-05-12T02:43:51;60249.09;;;-140.67;100.00
2294;BME280;1155;42.644;23.264;2023-05-12T02:46:18;60269.56;;;-140.67;100.00
2294;BME280;1155;42.644;23.264;2023-05-12T02:48:44;60290.03;;;-140.67;100.00
2294;BME280;1155;42.644;23.264;2023-05-12T02:51:11;60255.22;;;-140.67;100.00
2294;BME280;1155;42.644;23.264;2023-05-12T02:53:39;60257.28;;;-140.67;100.00
2294;BME280;1155;42.644;23.264;2023-05-12T02:56:06;60257.28;;;-140.67;100.00
2294;BME280;1155;42.644;23.264;2023-05-12T02:58:33;60273.66;;;-140.67;100.00
2294;BME280;1155;42.644;23.264;2023-05-12T03:01:00;60271.63;;;-140.67;100.00
2294;BME280;1155;42.644;23.264;2023-05-12T03:03:27;60245.00;;;-140.67;100.00
2294;BME280;1155;42.644;23.264;2023-05-12T03:05:54;60288.00;;;-140.67;100.00
2294;BME280;1155;42.644;23.264;2023-05-12T03:08:21;60263.44;;;-140.67;100.00
2294;BME280;1155;42.644;23.264;2023-05-12T03:10:49;60279.81;;;-140.67;100.00
2294;BME280;1155;42.644;23.264;2023-05-12T03:13:16;60265.47;;;-140.67;100.00
2294;BME280;1155;42.644;23.264;2023-05-12T03:15:43;60251.13;;;-140.67;100.00
2294;BME280;1155;42.644;23.264;2023-05-12T03:18:09;60271.63;;;-140.67;100.00
2294;BME280;1155;42.644;23.264;2023-05-12T03:20:36;60273.66;;;-140.67;100.00
2294;BME280;1155;42.644;23.264;2023-05-12T03:23:03;60257.28;;;-140.67;100.00
2294;BME280;1155;42.644;23.264;2023-05-12T03:25:30;60279.81;;;-140.67;100.00
2294;BME280;1155;42.644;23.264;2023-05-12T03:27:59;60265.47;;;-140.67;100.00
2294;BME280;1155;42.644;23.264;2023-05-12T03:30:26;60265.47;;;-140.67;100.00
2294;BME280;1155;42.644;23.264;2023-05-12T03:32:53;60275.72;;;-140.67;100.00
2294;BME280;1155;42.644;23.264;2023-05-12T03:35:20;60259.34;;;-140.67;100.00
2294;BME280;1155;42.644;23.264;2023-05-12T03:37:46;60265.47;;;-140.67;100.00
2294;BME280;1155;42.644;23.264;2023-05-12T03:40:13;60257.28;;;-140.67;100.00
2294;BME280;1155;42.644;23.264;2023-05-12T03:42:42;60277.75;;;-140.67;100.00
2294;BME280;1155;42.644;23.264;2023-05-12T03:45:11;60267.53;;;-140.67;100.00
2294;BME280;1155;42.644;23.264;2023-05-12T03:47:38;60265.47;;;-140.67;100.00
2294;BME280;1155;42.644;23.264;2023-05-12T03:50:06;60257.28;;;-140.67;100.00
2294;BME280;1155;42.644;23.264;2023-05-12T03:52:34;60281.84;;;-140.67;100.00
2294;BME280;1155;42.644;23.264;2023-05-12T03:55:03;60251.13;;;-140.67;100.00
2294;BME280;1155;42.644;23.264;2023-05-12T03:57:31;60283.91;;;-140.67;100.00
2294;BME280;1155;42.644;23.264;2023-05-12T03:59:58;60273.66;;;-140.67;100.00
2294;BME280;1155;42.644;23.264;2023-05-12T04:02:27;60265.47;;;-140.67;100.00
2294;BME280;1155;42.644;23.264;2023-05-12T04:04:53;60240.91;;;-140.67;100.00
2294;BME280;1155;42.644;23.264;2023-05-12T04:07:20;60273.66;;;-140.67;100.00
2294;BME280;1155;42.644;23.264;2023-05-12T04:09:47;60261.38;;;-140.67;100.00
2294;BME280;1155;42.644;23.264;2023-05-12T04:12:14;60281.84;;;-140.67;100.00
2294;BME280;1155;42.644;23.264;2023-05-12T04:14:41;60240.91;;;-140.67;100.00
2294;BME280;1155;42.644;23.264;2023-05-12T04:17:08;60275.72;;;-140.67;100.00
2294;BME280;1155;42.644;23.264;2023-05-12T04:19:36;60275.72;;;-140.67;100.00
2294;BME280;1155;42.644;23.264;2023-05-12T04:22:03;60253.19;;;-140.67;100.00
2294;BME280;1155;42.644;23.264;2023-05-12T04:24:30;60269.56;;;-140.67;100.00
2294;BME280;1155;42.644;23.264;2023-05-12T04:26:57;60273.66;;;-140.67;100.00
2294;BME280;1155;42.644;23.264;2023-05-12T04:29:24;60249.09;;;-140.67;100.00
2294;BME280;1155;42.644;23.264;2023-05-12T04:31:50;60273.66;;;-140.67;100.00
2294;BME280;1155;42.644;23.264;2023-05-12T04:34:19;60265.47;;;-140.67;100.00
2294;BME280;1155;42.644;23.264;2023-05-12T04:36:47;60265.47;;;-140.67;100.00
2294;BME280;1155;42.644;23.264;2023-05-12T04:39:14;60253.19;;;-140.67;100.00
2294;BME280;1155;42.644;23.264;2023-05-12T04:41:41;60273.66;;;-140.67;100.00
2294;BME280;1155;42.644;23.264;2023-05-12T04:44:08;60275.72;;;-140.67;100.00
2294;BME280;1155;42.644;23.264;2023-05-12T04:46:34;60267.53;;;-140.67;100.00
2294;BME280;1155;42.644;23.264;2023-05-12T04:49:01;60273.66;;;-140.67;100.00
2294;BME280;1155;42.644;23.264;2023-05-12T04:51:29;60281.84;;;-140.67;100.00
2294;BME280;1155;42.644;23.264;2023-05-12T04:53:57;60267.53;;;-140.67;100.00
2294;BME280;1155;42.644;23.264;2023-05-12T04:56:24;60253.19;;;-140.67;100.00
2294;BME280;1155;42.644;23.264;2023-05-12T04:58:51;60257.28;;;-140.67;100.00
2294;BME280;1155;42.644;23.264;2023-05-12T05:01:18;60253.19;;;-140.67;100.00
2294;BME280;1155;42.644;23.264;2023-05-12T05:03:45;60279.81;;;-140.67;100.00
2294;BME280;1155;42.644;23.264;2023-05-12T05:06:12;60277.75;;;-140.67;100.00
2294;BME280;1155;42.644;23.264;2023-05-12T05:08:38;60269.56;;;-140.67;100.00
2294;BME280;1155;42.644;23.264;2023-05-12T05:11:07;60257.28;;;-140.67;100.00
2294;BME280;1155;42.644;23.264;2023-05-12T05:13:34;60279.81;;;-140.67;100.00
2294;BME280;1155;42.644;23.264;2023-05-12T05:16:01;60253.19;;;-140.67;100.00
2294;BME280;1155;42.644;23.264;2023-05-12T05:18:28;60253.19;;;-140.67;100.00
2294;BME280;1155;42.644;23.264;2023-05-12T05:20:55;60253.19;;;-140.67;100.00
2294;BME280;1155;42.644;23.264;2023-05-12T05:23:22;60242.94;;;-140.67;100.00
2294;BME280;1155;42.644;23.264;2023-05-12T05:25:48;60273.66;;;-140.67;100.00
2294;BME280;1155;42.644;23.264;2023-05-12T05:28:17;60267.53;;;-140.67;100.00
2294;BME280;1155;42.644;23.264;2023-05-12T05:30:44;60265.47;;;-140.67;100.00
2294;BME280;1155;42.644;23.264;2023-05-12T05:33:10;60259.34;;;-140.67;100.00
2294;BME280;1155;42.644;23.264;2023-05-12T05:35:37;60249.09;;;-140.67;100.00
2294;BME280;1155;42.644;23.264;2023-05-12T05:38:04;60242.94;;;-140.67;100.00
2294;BME280;1155;42.644;23.264;2023-05-12T05:40:31;60261.38;;;-140.67;100.00
2294;BME280;1155;42.644;23.264;2023-05-12T05:42:58;60271.63;;;-140.67;100.00
2294;BME280;1155;42.644;23.264;2023-05-12T05:45:26;60236.81;;;-140.67;100.00
2294;BME280;1155;42.644;23.264;2023-05-12T05:47:53;60273.66;;;-140.67;100.00
2294;BME280;1155;42.644;23.264;2023-05-12T05:50:20;60224.53;;;-140.67;100.00
2294;BME280;1155;42.644;23.264;2023-05-12T05:52:46;60279.81;;;-140.67;100.00
2294;BME280;1155;42.644;23.264;2023-05-12T05:55:14;60245.00;;;-140.67;100.00
2294;BME280;1155;42.644;23.264;2023-05-12T05:57:40;60265.47;;;-140.67;100.00
2294;BME280;1155;42.644;23.264;2023-05-12T06:00:08;60261.38;;;-140.67;100.00
2294;BME280;1155;42.644;23.264;2023-05-12T06:02:39;60263.44;;;-140.67;100.00
2294;BME280;1155;42.644;23.264;2023-05-12T06:05:06;60253.19;;;-140.67;100.00
2294;BME280;1155;42.644;23.264;2023-05-12T06:07:34;60285.94;;;-140.67;100.00
2294;BME280;1155;42.644;23.264;2023-05-12T06:10:00;60247.03;;;-140.67;100.00
2294;BME280;1155;42.644;23.264;2023-05-12T06:12:28;60263.44;;;-140.67;100.00
2294;BME280;1155;42.644;23.264;2023-05-12T06:14:55;60251.13;;;-140.67;100.00
2294;BME280;1155;42.644;23.264;2023-05-12T06:17:22;60259.34;;;-140.67;100.00
2294;BME280;1155;42.644;23.264;2023-05-12T06:19:50;60265.47;;;-140.67;100.00
2294;BME280;1155;42.644;23.264;2023-05-12T06:22:17;60251.13;;;-140.67;100.00
2294;BME280;1155;42.644;23.264;2023-05-12T06:24:44;60273.66;;;-140.67;100.00
2294;BME280;1155;42.644;23.264;2023-05-12T06:27:11;60245.00;;;-140.67;100.00
2294;BME280;1155;42.644;23.264;2023-05-12T06:29:38;60240.91;;;-140.67;100.00
2294;BME280;1155;42.644;23.264;2023-05-12T06:32:06;60269.56;;;-140.67;100.00
2294;BME280;1155;42.644;23.264;2023-05-12T06:34:32;60249.09;;;-140.67;100.00
2294;BME280;1155;42.644;23.264;2023-05-12T06:37:01;60247.03;;;-140.67;100.00
2294;BME280;1155;42.644;23.264;2023-05-12T06:39:28;60257.28;;;-140.67;100.00
2294;BME280;1155;42.644;23.264;2023-05-12T06:41:55;60232.72;;;-140.67;100.00
2294;BME280;1155;42.644;23.264;2023-05-12T06:44:21;60271.63;;;-140.67;100.00
2294;BME280;1155;42.644;23.264;2023-05-12T06:46:48;60249.09;;;-140.67;100.00
2294;BME280;1155;42.644;23.264;2023-05-12T06:49:15;60257.28;;;-140.67;100.00
2294;BME280;1155;42.644;23.264;2023-05-12T06:51:42;60245.00;;;-140.67;100.00
2294;BME280;1155;42.644;23.264;2023-05-12T06:54:10;60271.63;;;-140.67;100.00
2294;BME280;1155;42.644;23.264;2023-05-12T06:56:37;60259.34;;;-140.67;100.00
2294;BME280;1155;42.644;23.264;2023-05-12T06:59:04;60269.56;;;-140.67;100.00
2294;BME280;1155;42.644;23.264;2023-05-12T07:01:31;60267.53;;;-140.67;100.00
2294;BME280;1155;42.644;23.264;2023-05-12T07:03:58;60240.91;;;-140.67;100.00
2294;BME280;1155;42.644;23.264;2023-05-12T07:06:25;60255.22;;;-140.67;100.00
2294;BME280;1155;42.644;23.264;2023-05-12T07:08:53;60245.00;;;-140.67;100.00
2294;BME280;1155;42.644;23.264;2023-05-12T07:11:21;60267.53;;;-140.67;100.00
2294;BME280;1155;42.644;23.264;2023-05-12T07:13:49;60249.09;;;-140.67;100.00
2294;BME280;1155;42.644;23.264;2023-05-12T07:16:17;60251.13;;;-140.67;100.00
2294;BME280;1155;42.644;23.264;2023-05-12T07:18:45;60251.13;;;-140.67;100.00
2294;BME280;1155;42.644;23.264;2023-05-12T07:21:12;60281.84;;;-140.67;100.00
2294;BME280;1155;42.644;23.264;2023-05-12T07:23:39;60245.00;;;-140.67;100.00
2294;BME280;1155;42.644;23.264;2023-05-12T07:26:06;60245.00;;;-140.67;100.00
2294;BME280;1155;42.644;23.264;2023-05-12T07:28:35;60236.81;;;-140.67;100.00
2294;BME280;1155;42.644;23.264;2023-05-12T07:31:03;60265.47;;;-140.67;100.00
2294;BME280;1155;42.644;23.264;2023-05-12T07:33:31;60263.44;;;-140.67;100.00
2294;BME280;1155;42.644;23.264;2023-05-12T07:35:59;60255.22;;;-140.67;100.00
2294;BME280;1155;42.644;23.264;2023-05-12T07:38:25;60285.94;;;-140.67;100.00
2294;BME280;1155;42.644;23.264;2023-05-12T07:40:53;60253.19;;;-140.67;100.00
2294;BME280;1155;42.644;23.264;2023-05-12T07:43:20;60263.44;;;-140.67;100.00
2294;BME280;1155;42.644;23.264;2023-05-12T07:45:48;60240.91;;;-140.67;100.00
2294;BME280;1155;42.644;23.264;2023-05-12T07:48:15;60220.41;;;-140.67;100.00
2294;BME280;1155;42.644;23.264;2023-05-12T07:50:41;60253.19;;;-140.67;100.00
2294;BME280;1155;42.644;23.264;2023-05-12T07:53:08;60226.56;;;-140.67;100.00
2294;BME280;1155;42.644;23.264;2023-05-12T07:55:35;60255.22;;;-140.67;100.00
2294;BME280;1155;42.644;23.264;2023-05-12T07:58:02;60269.56;;;-140.67;100.00
2294;BME280;1155;42.644;23.264;2023-05-12T08:00:29;60240.91;;;-140.67;100.00
2294;BME280;1155;42.644;23.264;2023-05-12T08:02:57;60253.19;;;-140.67;100.00
2294;BME280;1155;42.644;23.264;2023-05-12T08:05:24;60275.72;;;-140.67;100.00
2294;BME280;1155;42.644;23.264;2023-05-12T08:07:51;60261.38;;;-140.67;100.00
2294;BME280;1155;42.644;23.264;2023-05-12T08:10:18;60236.81;;;-140.67;100.00
2294;BME280;1155;42.644;23.264;2023-05-12T08:12:45;60238.84;;;-140.67;100.00
2294;BME280;1155;42.644;23.264;2023-05-12T08:15:12;60236.81;;;-140.67;100.00
2294;BME280;1155;42.644;23.264;2023-05-12T08:17:39;60265.47;;;-140.67;100.00
2294;BME280;1155;42.644;23.264;2023-05-12T08:20:08;60245.00;;;-140.67;100.00
2294;BME280;1155;42.644;23.264;2023-05-12T08:22:35;60245.00;;;-140.67;100.00
2294;BME280;1155;42.644;23.264;2023-05-12T08:25:02;60265.47;;;-140.67;100.00
2294;BME280;1155;42.644;23.264;2023-05-12T08:27:29;60261.38;;;-140.67;100.00
2294;BME280;1155;42.644;23.264;2023-05-12T08:29:56;60253.19;;;-140.67;100.00
2294;BME280;1155;42.644;23.264;2023-05-12T08:32:23;60253.19;;;-140.67;100.00
2294;BME280;1155;42.644;23.264;2023-05-12T08:34:50;60257.28;;;-140.67;100.00
2294;BME280;1155;42.644;23.264;2023-05-12T08:37:18;60253.19;;;-140.67;100.00
2294;BME280;1155;42.644;23.264;2023-05-12T08:39:45;60249.09;;;-140.67;100.00
2294;BME280;1155;42.644;23.264;2023-05-12T08:42:20;60230.66;;;-140.67;100.00
2294;BME280;1155;42.644;23.264;2023-05-12T08:44:50;60269.56;;;-140.67;100.00
2294;BME280;1155;42.644;23.264;2023-05-12T08:47:19;60265.47;;;-140.67;100.00
2294;BME280;1155;42.644;23.264;2023-05-12T08:49:53;60263.44;;;-140.67;100.00
2294;BME280;1155;42.644;23.264;2023-05-12T08:52:26;60263.44;;;-140.67;100.00
2294;BME280;1155;42.644;23.264;2023-05-12T08:54:54;60253.19;;;-140.67;100.00
2294;BME280;1155;42.644;23.264;2023-05-12T08:57:21;60253.19;;;-140.67;100.00
2294;BME280;1155;42.644;23.264;2023-05-12T08:59:48;60228.63;;;-140.67;100.00
2294;BME280;1155;42.644;23.264;2023-05-12T09:02:20;60257.28;;;-140.67;100.00
2294;BME280;1155;42.644;23.264;2023-05-12T09:04:47;60253.19;;;-140.67;100.00
2294;BME280;1155;42.644;23.264;2023-05-12T09:07:14;60255.22;;;-140.67;100.00
2294;BME280;1155;42.644;23.264;2023-05-12T09:09:43;60265.47;;;-140.67;100.00
2294;BME280;1155;42.644;23.264;2023-05-12T09:12:15;60251.13;;;-140.67;100.00
2294;BME280;1155;42.644;23.264;2023-05-12T09:14:44;60253.19;;;-140.67;100.00
2294;BME280;1155;42.644;23.264;2023-05-12T09:17:12;60273.66;;;-140.67;100.00
2294;BME280;1155;42.644;23.264;2023-05-12T09:19:39;60238.84;;;-140.67;100.00
2294;BME280;1155;42.644;23.264;2023-05-12T09:22:06;60240.91;;;-140.67;100.00
2294;BME280;1155;42.644;23.264;2023-05-12T09:24:39;60247.03;;;-140.67;100.00
2294;BME280;1155;42.644;23.264;2023-05-12T09:27:08;60253.19;;;-140.67;100.00
2294;BME280;1155;42.644;23.264;2023-05-12T09:29:35;60261.38;;;-140.67;100.00
2294;BME280;1155;42.644;23.264;2023-05-12T09:32:02;60261.38;;;-140.67;93.21
2294;BME280;1155;42.644;23.264;2023-05-12T09:34:30;60247.03;;;-140.67;85.96
2294;BME280;1155;42.644;23.264;2023-05-12T09:36:58;60234.75;;;-140.67;91.85
2294;BME280;1155;42.644;23.264;2023-05-12T09:39:27;60228.63;;;-140.67;86.55
2294;BME280;1155;42.644;23.264;2023-05-12T09:41:54;60238.84;;;-140.67;89.95
2294;BME280;1155;42.644;23.264;2023-05-12T09:44:23;60245.00;;;-140.67;80.66
2294;BME280;1155;42.644;23.264;2023-05-12T09:46:50;60255.22;;;-140.67;95.22
2294;BME280;1155;42.644;23.264;2023-05-12T09:49:18;60251.13;;;-140.67;91.79
2294;BME280;1155;42.644;23.264;2023-05-12T09:51:45;60257.28;;;-140.67;87.56
2294;BME280;1155;42.644;23.264;2023-05-12T09:54:23;60253.19;;;-140.67;72.37
2294;BME280;1155;42.644;23.264;2023-05-12T09:56:52;60249.09;;;-140.67;80.03
2294;BME280;1155;42.644;23.264;2023-05-12T09:59:23;60247.03;;;-140.67;89.70
2294;BME280;1155;42.644;23.264;2023-05-12T10:01:53;60257.28;;;-140.67;79.23
2294;BME280;1155;42.644;23.264;2023-05-12T10:04:24;60265.47;;;-140.67;71.13
2294;BME280;1155;42.644;23.264;2023-05-12T10:06:52;60261.38;;;-140.67;65.49
2294;BME280;1155;42.644;23.264;2023-05-12T10:09:23;60277.75;;;-140.67;66.67
2294;BME280;1155;42.644;23.264;2023-05-12T10:11:51;60269.56;;;-140.67;60.83
2294;BME280;1155;42.644;23.264;2023-05-12T10:14:18;60255.22;;;-140.67;66.67
2294;BME280;1155;42.644;23.264;2023-05-12T10:16:46;60267.53;;;-140.67;71.36
2294;BME280;1155;42.644;23.264;2023-05-12T10:19:16;60277.75;;;-140.67;69.97
2294;BME280;1155;42.644;23.264;2023-05-12T10:21:44;60240.91;;;-140.67;62.42
2294;BME280;1155;42.644;23.264;2023-05-12T10:24:13;60273.66;;;-140.67;61.07
2294;BME280;1155;42.644;23.264;2023-05-12T10:26:41;60261.38;;;-140.67;56.88
2294;BME280;1155;42.644;23.264;2023-05-12T10:29:09;60275.72;;;-140.67;62.79
2294;BME280;1155;42.644;23.264;2023-05-12T10:31:37;60261.38;;;-140.67;64.27
2294;BME280;1155;42.644;23.264;2023-05-12T10:34:05;60257.28;;;-140.67;65.40
2294;BME280;1155;42.644;23.264;2023-05-12T10:36:42;60273.66;;;-140.67;60.40
2294;BME280;1155;42.644;23.264;2023-05-12T10:39:12;60253.19;;;-140.67;59.74
2294;BME280;1155;42.644;23.264;2023-05-12T10:41:40;60251.13;;;-140.67;62.25
2294;BME280;1155;42.644;23.264;2023-05-12T10:44:08;60259.34;;;-140.67;64.21
2294;BME280;1155;42.644;23.264;2023-05-12T10:46:35;60236.81;;;-140.67;72.33
2294;BME280;1155;42.644;23.264;2023-05-12T10:49:07;60247.03;;;-140.67;72.35
2294;BME280;1155;42.644;23.264;2023-05-12T10:51:46;60240.91;;;-140.67;65.69
2294;BME280;1155;42.644;23.264;2023-05-12T10:54:19;60251.13;;;-140.67;66.65
2294;BME280;1155;42.644;23.264;2023-05-12T10:56:46;60265.47;;;-140.67;69.89
2294;BME280;1155;42.644;23.264;2023-05-12T10:59:15;60257.28;;;-140.67;70.74
2294;BME280;1155;42.644;23.264;2023-05-12T11:01:55;60245.00;;;-140.67;76.40
2294;BME280;1155;42.644;23.264;2023-05-12T11:04:37;60253.19;;;-140.67;71.08
2294;BME280;1155;42.644;23.264;2023-05-12T11:07:06;60283.91;;;-140.67;88.36
2294;BME280;1155;42.644;23.264;2023-05-12T11:09:34;60249.09;;;-140.67;69.14
2294;BME280;1155;42.644;23.264;2023-05-12T11:12:01;60236.81;;;-140.67;76.55
2294;BME280;1155;42.644;23.264;2023-05-12T11:14:29;60240.91;;;-140.67;75.92
2294;BME280;1155;42.644;23.264;2023-05-12T11:16:56;60232.72;;;-140.67;69.56
2294;BME280;1155;42.644;23.264;2023-05-12T11:19:24;60222.47;;;-140.67;77.20
2294;BME280;1155;42.644;23.264;2023-05-12T11:21:52;60255.22;;;-140.67;74.21
2294;BME280;1155;42.644;23.264;2023-05-12T11:24:20;60261.38;;;-140.67;76.40
2294;BME280;1155;42.644;23.264;2023-05-12T11:26:47;60257.28;;;-140.67;76.02
2294;BME280;1155;42.644;23.264;2023-05-12T11:29:16;60261.38;;;-140.67;67.97
2294;BME280;1155;42.644;23.264;2023-05-12T11:31:46;60251.13;;;-140.67;81.67
2294;BME280;1155;42.644;23.264;2023-05-12T11:34:13;60234.75;;;-140.67;70.00
2294;BME280;1155;42.644;23.264;2023-05-12T11:36:43;60247.03;;;-140.67;75.81
2294;BME280;1155;42.644;23.264;2023-05-12T11:39:15;60253.19;;;-140.67;73.00
2294;BME280;1155;42.644;23.264;2023-05-12T11:41:42;60261.38;;;-140.67;71.13
2294;BME280;1155;42.644;23.264;2023-05-12T11:44:13;60251.13;;;-140.67;70.81
2294;BME280;1155;42.644;23.264;2023-05-12T11:46:41;60253.19;;;-140.67;72.36
2294;BME280;1155;42.644;23.264;2023-05-12T11:49:18;60234.75;;;-140.67;67.30
2294;BME280;1155;42.644;23.264;2023-05-12T11:51:47;60240.91;;;-140.67;58.57
2294;BME280;1155;42.644;23.264;2023-05-12T11:54:13;60261.38;;;-140.67;62.67
2294;BME280;1155;42.644;23.264;2023-05-12T11:56:46;60265.47;;;-140.67;57.30
2294;BME280;1155;42.644;23.264;2023-05-12T11:59:24;60265.47;;;-140.67;55.93
2294;BME280;1155;42.644;23.264;2023-05-12T12:01:52;60277.75;;;-140.67;53.53
2294;BME280;1155;42.644;23.264;2023-05-12T12:04:30;60261.38;;;-140.67;52.69
2294;BME280;1155;42.644;23.264;2023-05-12T12:06:58;60253.19;;;-140.67;54.61
2294;BME280;1155;42.644;23.264;2023-05-12T12:09:30;60257.28;;;-140.67;51.56
2294;BME280;1155;42.644;23.264;2023-05-12T12:11:57;60277.75;;;-140.67;56.33
2294;BME280;1155;42.644;23.264;2023-05-12T12:14:24;60302.34;;;-140.67;50.34
2294;BME280;1155;42.644;23.264;2023-05-12T12:16:50;60281.84;;;-140.67;49.44
2294;BME280;1155;42.644;23.264;2023-05-12T12:19:17;60249.09;;;-140.67;52.32
2294;BME280;1155;42.644;23.264;2023-05-12T12:21:44;60224.53;;;-140.67;53.48
2294;BME280;1155;42.644;23.264;2023-05-12T12:24:12;60277.75;;;-140.67;56.61
2294;BME280;1155;42.644;23.264;2023-05-12T12:26:39;60263.44;;;-140.67;59.51
2294;BME280;1155;42.644;23.264;2023-05-12T12:29:06;60236.81;;;-140.67;58.19
2294;BME280;1155;42.644;23.264;2023-05-12T12:31:33;60267.53;;;-140.67;59.21
2294;BME280;1155;42.644;23.264;2023-05-12T12:34:01;60249.09;;;-140.67;58.28
2294;BME280;1155;42.644;23.264;2023-05-12T12:36:28;60290.03;;;-140.67;51.50
2294;BME280;1155;42.644;23.264;2023-05-12T12:38:55;60253.19;;;-140.67;56.78
2294;BME280;1155;42.644;23.264;2023-05-12T12:41:23;60249.09;;;-140.67;54.21
2294;BME280;1155;42.644;23.264;2023-05-12T12:43:50;60265.47;;;-140.67;53.49
2294;BME280;1155;42.644;23.264;2023-05-12T12:46:17;60261.38;;;-140.67;51.22